Agnew, NE

10:10 AM CDT on May 06, 2015 (GMT -0500)
Raymond, NE | | Change Station
CLOSE
Current Station
Personal Weather Station
Location: Raymond, NE
Elevation: 1309 ft
Nearby Weather Stations

Elev 1309 ft 40.98 °N, 96.78 °W | Updated 4 minutes ago

Overcast
Overcast
63.6 °F
Feels Like 63.6 °F
N
7.0
Wind Variable Wind from South
Gusts 18.0 mph

Today
High -- | Low -- °F
--% Chance of Precip.
Yesterday
High -- | Low -- °F
Precip. -- in
6:19 AM 8:28 PM
Waning Gibbous, 94% visible
Pressure 29.82 in
Visibility 10.0 miles
Clouds Few 1500 ft
Mostly Cloudy 4000 ft
Overcast 7000 ft
Dew Point 61 °F
Humidity 91%
Rainfall 0.09 in
Snow Depth Not available.
UV 2 out of 12
Pollen 7.40 out of 12
Air Quality Not available.
Flu Activity Local Activity
METAR KLNK 061454Z 17016KT 10SM -RA FEW015 BKN040 OVC070 18/16 A2982

More Conditions Fewer Conditions

Pressure 29.82 in
Visibility 10.0 miles
Clouds Few 1500 ft
Mostly Cloudy 4000 ft
Overcast 7000 ft
Dew Point 61 °F
Humidity 91%
Rainfall 0.09 in
Snow Depth Not available.
UV 2 out of 12
Pollen 7.40 out of 12
Air Quality Not available.
Flu Activity Local Activity
METAR KLNK 061454Z 17016KT 10SM -RA FEW015 BKN040 OVC070 18/16 A2982

More Conditions Fewer Conditions

10-Day Weather Forecast

Almanac

Astronomy

May. 06, 2015 Rise Set
Actual Time
Civil Twilight
Nautical Twilight
Astronomical Twilight
Moon
Length of Visible Light
Length of Day
Tomorrow will be .
, % of the Moon is Illuminated

Today's Extremes

State Highs State Lows

Community

WunderPhotos

Upload Photos

1,818,926 photos uploaded!

WunderBlogs® & News

Nearby

Air Quality

  Air Quality AQ Index Pollutant
Not available.

Snow Depth

Station Depth Elevation

Earthquake Activity

City Distance Mag. Time & Date
Minimum magnitude displayed is 2.5.

Coastal Water Temperatures

Place Temperature

Stations

Nearby Weather Stations

Station Location Temp. Windchill Dew Point Humidity Wind Precip. Elev Updated Type